Time;durP1;ratioP1;P1;durP2;ratioP2;P2;SDS_P1;SDS_P2;PMS_P1;PMS_P2;Temp;Humidity;BMP_temperature;BMP_pressure;BME280_temperature;BME280_humidity;BME280_pressure;Samples;Min_cycle;Max_cycle;Signal;HPM_P1;HPM_P2
2022/04/27 00:00:30;;;;;;;27.25;23.98;;;8.60;99.90;;;;;;5113653;28;20239;-70
2022/04/27 00:02:57;;;;;;;27.55;24.27;;;8.60;99.90;;;;;;5114966;28;20227;-71
2022/04/27 00:05:26;;;;;;;29.42;25.08;;;8.60;99.90;;;;;;5116590;28;20735;-69
2022/04/27 00:07:53;;;;;;;31.77;25.85;;;8.60;99.90;;;;;;5120856;28;20208;-71
2022/04/27 00:10:20;;;;;;;31.45;25.02;;;8.50;99.90;;;;;;5134573;28;20201;-70
2022/04/27 00:12:48;;;;;;;33.13;27.52;;;8.50;99.90;;;;;;5134226;28;20196;-70
2022/04/27 00:15:20;;;;;;;28.73;25.67;;;8.50;99.90;;;;;;5134624;28;20213;-71
2022/04/27 00:17:48;;;;;;;48.78;36.50;;;8.50;99.90;;;;;;5113861;28;20183;-72
2022/04/27 00:20:15;;;;;;;52.45;35.13;;;8.60;99.90;;;;;;5102468;28;20269;-70
2022/04/27 00:22:43;;;;;;;59.65;36.55;;;8.50;99.90;;;;;;5100534;28;20208;-70
2022/04/27 00:25:10;;;;;;;50.58;32.65;;;8.60;99.90;;;;;;5114416;28;20300;-71
2022/04/27 00:27:37;;;;;;;49.92;30.83;;;8.60;99.90;;;;;;5117113;28;20284;-70
2022/04/27 00:30:05;;;;;;;37.20;27.30;;;8.60;99.90;;;;;;5117195;28;20284;-72
2022/04/27 00:32:31;;;;;;;33.65;21.83;;;8.60;99.90;;;;;;5117404;28;20208;-71
2022/04/27 00:34:58;;;;;;;35.30;17.25;;;8.60;99.90;;;;;;5116561;28;20226;-72
2022/04/27 00:37:25;;;;;;;24.35;15.18;;;8.60;99.90;;;;;;5116359;28;20208;-71
2022/04/27 00:39:54;;;;;;;17.65;12.00;;;8.60;99.90;;;;;;5115936;28;20302;-71
2022/04/27 00:42:22;;;;;;;20.30;10.60;;;8.60;99.90;;;;;;5116234;28;20671;-71
2022/04/27 00:44:50;;;;;;;11.35;8.07;;;8.60;99.90;;;;;;5116601;28;20246;-70
2022/04/27 00:47:18;;;;;;;12.35;8.60;;;8.60;99.90;;;;;;5115930;28;20233;-71
2022/04/27 00:49:48;;;;;;;13.40;7.85;;;8.60;99.90;;;;;;5115652;28;20224;-71
2022/04/27 00:52:16;;;;;;;16.67;9.40;;;8.60;99.90;;;;;;5115445;28;20313;-71
2022/04/27 00:54:44;;;;;;;14.40;7.63;;;8.60;99.90;;;;;;5115985;28;20217;-71
2022/04/27 00:57:12;;;;;;;16.27;8.38;;;8.60;99.90;;;;;;5116072;28;20240;-71
2022/04/27 00:59:40;;;;;;;10.13;6.88;;;8.60;99.90;;;;;;5115301;28;20225;-70
2022/04/27 01:02:08;;;;;;;18.83;7.28;;;8.50;99.90;;;;;;5115472;28;20224;-69
2022/04/27 01:04:36;;;;;;;11.88;8.18;;;8.50;99.90;;;;;;5108261;28;20194;-68
2022/04/27 01:07:04;;;;;;;9.60;7.97;;;8.40;99.90;;;;;;5116260;28;20758;-68
2022/04/27 01:09:32;;;;;;;10.70;8.25;;;8.40;99.90;;;;;;5115306;28;20225;-69
2022/04/27 01:12:00;;;;;;;12.48;6.90;;;8.40;99.90;;;;;;5116010;28;20287;-69
2022/04/27 01:14:29;;;;;;;13.18;7.40;;;8.30;99.90;;;;;;5115462;28;20709;-69
2022/04/27 01:16:57;;;;;;;12.05;8.20;;;8.30;99.90;;;;;;5115789;28;20299;-68
2022/04/27 01:19:26;;;;;;;9.18;6.90;;;8.20;99.90;;;;;;5105329;28;20229;-70
2022/04/27 01:21:55;;;;;;;14.70;8.15;;;8.20;99.90;;;;;;5115155;28;20198;-70
2022/04/27 01:24:24;;;;;;;11.18;7.70;;;8.10;99.90;;;;;;5113488;28;20208;-69
2022/04/27 01:26:51;;;;;;;12.95;8.02;;;8.10;99.90;;;;;;5115844;28;20209;-69
2022/04/27 01:29:18;;;;;;;9.25;7.70;;;8.00;99.90;;;;;;5114909;28;20338;-69
2022/04/27 01:31:45;;;;;;;15.27;7.90;;;8.00;99.90;;;;;;5115239;28;20563;-71
2022/04/27 01:34:14;;;;;;;12.13;8.50;;;8.00;99.90;;;;;;5115543;28;20554;-69
2022/04/27 01:36:41;;;;;;;13.27;8.90;;;8.00;99.90;;;;;;5114825;28;20243;-70
2022/04/27 01:39:10;;;;;;;9.05;7.50;;;8.00;99.90;;;;;;5114538;28;20306;-68
2022/04/27 01:41:37;;;;;;;11.32;8.82;;;8.00;99.90;;;;;;5114025;28;20578;-70
2022/04/27 01:44:04;;;;;;;10.07;8.45;;;7.90;99.90;;;;;;5113187;28;20200;-70
2022/04/27 01:46:31;;;;;;;9.73;7.80;;;8.00;99.90;;;;;;5113914;28;20200;-70
2022/04/27 01:48:58;;;;;;;13.88;7.95;;;7.90;99.90;;;;;;5114398;28;20777;-70
2022/04/27 01:54:18;;;;;;;13.77;8.70;;;8.00;99.90;;;;;;5114446;28;20261;-69
2022/04/27 01:56:48;;;;;;;8.68;7.78;;;8.00;99.90;;;;;;5109976;28;20295;-68
2022/04/27 01:59:16;;;;;;;16.17;8.40;;;8.00;99.90;;;;;;5114576;28;20317;-68
2022/04/27 02:01:44;;;;;;;12.48;8.82;;;7.90;99.90;;;;;;5114380;28;20202;-69
2022/04/27 02:04:12;;;;;;;12.23;7.85;;;7.90;99.90;;;;;;5114315;28;20296;-69
2022/04/27 02:06:40;;;;;;;11.23;8.10;;;7.90;99.90;;;;;;5114276;28;20282;-69
2022/04/27 02:09:07;;;;;;;13.77;8.85;;;7.80;99.90;;;;;;5112697;28;20232;-71
2022/04/27 02:11:35;;;;;;;12.10;8.05;;;7.80;99.90;;;;;;5113865;28;20196;-71
2022/04/27 02:14:03;;;;;;;10.70;8.60;;;7.80;99.90;;;;;;5115192;28;20215;-71
2022/04/27 02:16:31;;;;;;;14.38;7.82;;;7.80;99.90;;;;;;5117394;28;20291;-71
2022/04/27 02:18:58;;;;;;;11.00;8.40;;;7.80;99.90;;;;;;5115297;28;20701;-70
2022/04/27 02:21:26;;;;;;;10.35;7.28;;;7.70;99.90;;;;;;5114534;28;20284;-71
2022/04/27 02:23:53;;;;;;;13.00;8.35;;;7.80;99.90;;;;;;5114691;28;20215;-71
2022/04/27 02:26:20;;;;;;;13.30;8.23;;;7.80;99.90;;;;;;5107838;28;20208;-71
2022/04/27 02:28:48;;;;;;;11.82;7.55;;;7.90;99.90;;;;;;5113653;28;20740;-71
2022/04/27 02:31:16;;;;;;;13.18;9.43;;;7.80;99.90;;;;;;5113761;28;20554;-71
2022/04/27 02:33:43;;;;;;;10.25;9.07;;;7.70;99.90;;;;;;5113983;28;20289;-71
2022/04/27 02:36:10;;;;;;;11.27;7.85;;;7.70;99.90;;;;;;5114718;28;20672;-71
2022/04/27 02:38:37;;;;;;;17.92;8.30;;;7.70;99.90;;;;;;5114236;28;20259;-71
2022/04/27 02:41:04;;;;;;;18.23;9.65;;;7.70;99.90;;;;;;5113954;28;20271;-70
2022/04/27 02:43:32;;;;;;;10.18;9.18;;;7.70;99.90;;;;;;5114427;28;20290;-71
2022/04/27 02:45:59;;;;;;;15.32;10.10;;;7.60;99.90;;;;;;5114491;28;20259;-71
2022/04/27 02:48:27;;;;;;;10.02;8.80;;;7.60;99.90;;;;;;5113831;28;20307;-71
2022/04/27 02:53:38;;;;;;;17.02;9.98;;;7.60;99.90;;;;;;5109321;28;20245;-72
2022/04/27 02:56:06;;;;;;;15.48;8.20;;;7.50;99.90;;;;;;5113704;28;20224;-71
2022/04/27 02:58:33;;;;;;;15.20;10.40;;;7.50;99.90;;;;;;5114063;28;20219;-70
2022/04/27 03:00:59;;;;;;;10.30;7.93;;;7.50;99.90;;;;;;5113136;28;20227;-70
2022/04/27 03:03:28;;;;;;;22.10;9.00;;;7.50;99.90;;;;;;5113537;28;20684;-72
2022/04/27 03:05:55;;;;;;;12.20;8.55;;;7.50;99.90;;;;;;5113573;28;20223;-71
2022/04/27 03:08:22;;;;;;;9.88;8.50;;;7.50;99.90;;;;;;5113253;28;20751;-71
2022/04/27 03:10:48;;;;;;;17.25;8.98;;;7.50;99.90;;;;;;5112821;28;20207;-70
2022/04/27 03:13:15;;;;;;;13.00;8.98;;;7.50;99.90;;;;;;5113619;28;20218;-71
2022/04/27 03:15:42;;;;;;;10.40;8.35;;;7.50;99.90;;;;;;5113883;28;20208;-71
2022/04/27 03:18:19;;;;;;;13.23;8.98;;;7.50;99.90;;;;;;5113241;28;20345;-71
2022/04/27 03:20:48;;;;;;;11.23;8.68;;;7.50;99.90;;;;;;5113120;28;20216;-71
2022/04/27 03:23:16;;;;;;;12.77;7.88;;;7.60;99.90;;;;;;5113720;28;20560;-70
2022/04/27 03:25:43;;;;;;;13.88;8.88;;;7.60;99.90;;;;;;5113546;28;20202;-71
2022/04/27 03:28:10;;;;;;;14.60;7.68;;;7.60;99.90;;;;;;5113440;28;20249;-70
2022/04/27 03:30:37;;;;;;;14.65;8.30;;;7.70;99.90;;;;;;5113053;28;20201;-70
2022/04/27 03:33:04;;;;;;;10.20;7.47;;;7.70;99.90;;;;;;5113583;28;20759;-71
2022/04/27 03:35:31;;;;;;;9.93;7.65;;;7.70;99.90;;;;;;5113617;28;20223;-71
2022/04/27 03:38:01;;;;;;;12.50;7.93;;;7.60;99.90;;;;;;5112994;28;20721;-73
2022/04/27 03:40:28;;;;;;;10.30;8.50;;;7.70;99.90;;;;;;5113298;28;20207;-71
2022/04/27 03:42:57;;;;;;;9.55;8.13;;;7.60;99.90;;;;;;5114067;28;20227;-71
2022/04/27 03:45:25;;;;;;;10.68;8.20;;;7.60;99.90;;;;;;5113649;28;20291;-71
2022/04/27 03:47:52;;;;;;;14.35;9.40;;;7.60;99.90;;;;;;5112769;28;20286;-71
2022/04/27 03:50:19;;;;;;;16.80;9.55;;;7.70;99.90;;;;;;5113176;28;20729;-71
2022/04/27 03:52:47;;;;;;;17.30;10.90;;;7.70;99.90;;;;;;5113500;28;20273;-72
2022/04/27 03:55:16;;;;;;;11.90;8.52;;;7.80;99.90;;;;;;5113549;28;20247;-70
2022/04/27 03:57:43;;;;;;;10.70;9.45;;;7.70;99.90;;;;;;5113072;28;20206;-70
2022/04/27 04:00:12;;;;;;;11.88;9.00;;;7.60;99.90;;;;;;5116284;28;20210;-71
2022/04/27 04:02:39;;;;;;;11.13;8.60;;;7.60;99.90;;;;;;5119456;28;20226;-71
2022/04/27 04:05:07;;;;;;;15.10;9.85;;;7.60;99.90;;;;;;5119526;28;20236;-71
2022/04/27 04:07:34;;;;;;;14.30;9.82;;;7.60;99.90;;;;;;5117618;28;20551;-71
2022/04/27 04:10:01;;;;;;;14.30;10.40;;;7.60;99.90;;;;;;5118232;28;20288;-71
2022/04/27 04:12:30;;;;;;;16.05;10.85;;;7.50;99.90;;;;;;5112906;28;20289;-70
2022/04/27 04:14:58;;;;;;;15.52;11.15;;;7.50;99.90;;;;;;5122482;28;20288;-70
2022/04/27 04:17:25;;;;;;;16.83;11.38;;;7.50;99.90;;;;;;5133952;28;20224;-71
2022/04/27 04:19:52;;;;;;;15.32;11.35;;;7.50;99.90;;;;;;5131445;28;20214;-70
2022/04/27 04:22:19;;;;;;;17.20;12.13;;;7.60;99.90;;;;;;5118017;28;20232;-71
2022/04/27 04:30:12;;;;;;;16.67;11.63;;;7.70;99.90;;;;;;5140214;28;20203;-69
2022/04/27 04:33:04;;;;;;;24.23;11.98;;;7.80;99.90;;;;;;5136554;28;20186;-71
2022/04/27 04:35:38;;;;;;;15.68;10.85;;;7.80;99.90;;;;;;5118140;28;20208;-70
2022/04/27 04:38:05;;;;;;;17.80;11.95;;;7.90;99.90;;;;;;5117509;28;20236;-70
2022/04/27 04:40:33;;;;;;;15.43;12.90;;;7.90;99.90;;;;;;5117005;28;20195;-71
2022/04/27 04:43:00;;;;;;;17.02;12.20;;;7.90;99.90;;;;;;5116508;28;20298;-69
2022/04/27 04:45:28;;;;;;;17.90;12.05;;;8.00;99.90;;;;;;5117242;28;20282;-70
2022/04/27 04:47:55;;;;;;;18.08;12.45;;;8.10;99.90;;;;;;5115595;28;20236;-69
2022/04/27 04:50:22;;;;;;;23.20;12.48;;;8.10;99.90;;;;;;5116874;28;20670;-72
2022/04/27 04:52:49;;;;;;;20.58;11.50;;;8.10;99.90;;;;;;5116720;28;20205;-70
2022/04/27 04:55:17;;;;;;;15.10;11.13;;;8.30;99.90;;;;;;5116592;28;20565;-70
2022/04/27 04:57:43;;;;;;;18.67;12.68;;;8.40;99.90;;;;;;5116128;28;21039;-70
2022/04/27 05:00:11;;;;;;;16.48;11.30;;;8.50;99.90;;;;;;5115944;28;20294;-71
2022/04/27 05:02:40;;;;;;;16.23;11.50;;;8.60;99.90;;;;;;5116518;28;20205;-70
2022/04/27 05:05:08;;;;;;;20.45;10.52;;;8.90;99.90;;;;;;5116180;28;20208;-71
2022/04/27 05:07:38;;;;;;;11.93;8.95;;;9.60;99.90;;;;;;5116420;28;20233;-72
2022/04/27 05:10:07;;;;;;;13.18;9.95;;;10.40;99.90;;;;;;5115724;28;20258;-71
2022/04/27 05:12:36;;;;;;;17.23;10.10;;;11.30;99.90;;;;;;5115936;28;20246;-72
2022/04/27 05:15:03;;;;;;;12.80;9.30;;;12.10;99.90;;;;;;5115651;28;20203;-72
2022/04/27 05:17:30;;;;;;;12.40;8.80;;;12.90;99.90;;;;;;5115877;28;20201;-72
2022/04/27 05:19:58;;;;;;;13.30;8.75;;;13.50;99.90;;;;;;5115062;28;20224;-72
2022/04/27 05:22:25;;;;;;;12.27;9.15;;;14.10;99.90;;;;;;5116233;28;20205;-72
2022/04/27 05:24:52;;;;;;;11.38;8.60;;;14.70;99.90;;;;;;5112675;28;20648;-69
2022/04/27 05:27:19;;;;;;;8.43;7.32;;;15.00;97.70;;;;;;5108937;28;20580;-73
2022/04/27 05:32:30;;;;;;;10.00;8.90;;;16.00;94.20;;;;;;5100768;28;20263;-70
2022/04/27 05:34:59;;;;;;;12.45;7.47;;;16.00;93.00;;;;;;5106981;28;20288;-73
2022/04/27 05:37:26;;;;;;;9.73;8.35;;;16.20;92.50;;;;;;5115704;28;20219;-73
2022/04/27 05:39:53;;;;;;;11.18;8.30;;;16.40;92.00;;;;;;5114933;28;20227;-72
2022/04/27 05:42:20;;;;;;;18.35;9.25;;;16.80;91.40;;;;;;5103676;28;20203;-72
2022/04/27 05:44:47;;;;;;;9.80;8.43;;;16.90;90.50;;;;;;5111919;28;20239;-74
2022/04/27 05:47:14;;;;;;;12.47;8.50;;;17.20;90.20;;;;;;5116000;28;20497;-72
2022/04/27 05:49:41;;;;;;;14.20;9.20;;;17.70;88.50;;;;;;5115550;28;20541;-72
2022/04/27 05:52:09;;;;;;;10.30;7.53;;;18.40;85.90;;;;;;5115007;28;20440;-70
2022/04/27 05:54:36;;;;;;;7.30;6.20;;;19.00;83.30;;;;;;5108232;28;20530;-70
2022/04/27 05:57:03;;;;;;;7.20;6.50;;;19.20;80.70;;;;;;5106276;28;20499;-72
2022/04/27 05:59:30;;;;;;;12.40;7.27;;;19.50;79.70;;;;;;5115050;28;20464;-72
2022/04/27 06:01:57;;;;;;;11.80;7.20;;;19.70;78.70;;;;;;5098567;28;20484;-70
2022/04/27 06:04:25;;;;;;;11.40;8.00;;;19.90;77.50;;;;;;5111854;28;20455;-70
2022/04/27 06:06:52;;;;;;;13.57;7.60;;;20.00;77.10;;;;;;5111486;28;20444;-72
2022/04/27 06:09:20;;;;;;;9.30;6.60;;;20.10;75.60;;;;;;5115060;28;20479;-71
2022/04/27 06:11:47;;;;;;;8.33;6.90;;;20.60;74.90;;;;;;5114758;28;20495;-74
2022/04/27 06:14:14;;;;;;;12.63;6.53;;;21.10;73.40;;;;;;5114990;28;20534;-70
2022/04/27 06:16:41;;;;;;;8.97;7.53;;;21.10;72.00;;;;;;5110384;28;20478;-71
2022/04/27 06:19:09;;;;;;;9.47;7.77;;;21.30;71.60;;;;;;5099185;28;20554;-73
2022/04/27 06:21:35;;;;;;;8.17;6.17;;;21.40;71.20;;;;;;5105048;28;20450;-72
2022/04/27 06:24:04;;;;;;;7.37;6.50;;;21.50;70.30;;;;;;5115382;28;20471;-71
2022/04/27 06:26:33;;;;;;;9.93;6.30;;;21.70;69.70;;;;;;5114721;28;20461;-72
2022/04/27 06:29:00;;;;;;;6.87;6.00;;;21.60;68.80;;;;;;5113581;28;20478;-72
2022/04/27 06:31:30;;;;;;;15.57;8.47;;;21.70;68.60;;;;;;5114211;28;20439;-73
2022/04/27 06:33:57;;;;;;;11.60;8.73;;;21.90;67.90;;;;;;5114036;28;20443;-73
2022/04/27 06:36:24;;;;;;;10.97;8.67;;;21.90;67.60;;;;;;5113903;28;20506;-73
2022/04/27 06:38:51;;;;;;;14.07;10.40;;;21.90;67.80;;;;;;5114254;28;20499;-72
2022/04/27 06:41:18;;;;;;;12.90;7.40;;;21.80;67.90;;;;;;5108830;28;20455;-75
2022/04/27 06:43:47;;;;;;;12.63;8.30;;;21.60;67.00;;;;;;5113440;28;20818;-72
2022/04/27 06:46:14;;;;;;;9.20;7.83;;;21.50;67.60;;;;;;5114145;28;20814;-70
2022/04/27 06:48:41;;;;;;;9.37;6.53;;;22.00;67.10;;;;;;5114090;28;20467;-71
2022/04/27 06:51:08;;;;;;;9.93;6.60;;;21.90;66.20;;;;;;5113642;28;20542;-71
2022/04/27 06:53:35;;;;;;;7.53;5.27;;;22.30;66.40;;;;;;5111151;28;20521;-70
2022/04/27 06:56:02;;;;;;;8.83;5.90;;;22.50;65.60;;;;;;5111325;28;20467;-74
2022/04/27 06:58:29;;;;;;;5.30;4.20;;;22.90;64.70;;;;;;5113780;28;20463;-71
2022/04/27 07:00:58;;;;;;;10.37;4.80;;;23.10;63.30;;;;;;5105040;28;20471;-71
2022/04/27 07:03:25;;;;;;;8.20;3.53;;;23.30;63.00;;;;;;5108946;28;20435;-72
2022/04/27 07:05:52;;;;;;;4.73;3.73;;;23.70;61.90;;;;;;5107069;28;20468;-70
2022/04/27 07:08:19;;;;;;;9.67;3.80;;;24.20;60.60;;;;;;5105003;28;20790;-70
2022/04/27 07:10:46;;;;;;;8.90;3.10;;;23.90;60.00;;;;;;5114676;28;20940;-71
2022/04/27 07:13:13;;;;;;;9.00;3.10;;;23.90;60.60;;;;;;5115609;28;20469;-70
2022/04/27 07:15:40;;;;;;;4.00;2.27;;;24.10;58.80;;;;;;5116308;28;20427;-72
2022/04/27 07:18:08;;;;;;;6.37;2.30;;;24.40;59.20;;;;;;5118476;28;20491;-71
2022/04/27 07:20:35;;;;;;;6.50;3.30;;;24.40;58.20;;;;;;5128813;28;20451;-68
2022/04/27 07:23:02;;;;;;;6.27;2.63;;;24.80;57.40;;;;;;5130857;28;21017;-71
2022/04/27 07:25:29;;;;;;;4.77;2.20;;;24.80;56.50;;;;;;5134774;28;20443;-71
2022/04/27 07:28:11;;;;;;;8.43;3.13;;;24.70;56.90;;;;;;5133214;28;20979;-70
2022/04/27 07:30:37;;;;;;;5.53;2.07;;;24.70;57.20;;;;;;5132989;28;20489;-70
2022/04/27 07:33:05;;;;;;;4.73;3.43;;;25.30;56.30;;;;;;5127185;28;20439;-71
2022/04/27 07:35:33;;;;;;;3.63;2.17;;;25.40;55.50;;;;;;5139668;27;20426;-70
2022/04/27 07:38:00;;;;;;;3.53;2.53;;;25.10;55.20;;;;;;5121929;27;20570;-69
2022/04/27 07:40:27;;;;;;;3.10;2.30;;;24.70;55.70;;;;;;5104463;28;20472;-72
2022/04/27 07:42:55;;;;;;;7.30;2.60;;;24.20;56.40;;;;;;5099499;28;20519;-72
2022/04/27 07:45:22;;;;;;;4.07;2.60;;;23.80;56.40;;;;;;5105423;28;20447;-72
2022/04/27 07:47:49;;;;;;;4.90;2.40;;;22.80;55.20;;;;;;5113644;28;20832;-72
2022/04/27 07:50:18;;;;;;;6.03;3.23;;;21.30;57.90;;;;;;5109642;28;20445;-71
2022/04/27 07:52:46;;;;;;;5.83;3.13;;;19.80;59.70;;;;;;5105020;28;20518;-71
2022/04/27 07:55:13;;;;;;;5.67;2.90;;;18.40;63.60;;;;;;5111015;28;20439;-70
2022/04/27 07:57:40;;;;;;;3.60;2.10;;;17.50;65.30;;;;;;5104274;28;20568;-73
2022/04/27 08:00:09;;;;;;;4.63;2.60;;;16.90;66.80;;;;;;5105756;28;20438;-73
2022/04/27 08:02:36;;;;;;;6.78;3.47;;;16.40;69.60;;;;;;5112911;28;20485;-73
2022/04/27 08:05:04;;;;;;;7.10;3.28;;;15.90;71.70;;;;;;5113070;28;20219;-72
2022/04/27 08:07:36;;;;;;;9.07;4.10;;;16.10;73.20;;;;;;5113581;28;20727;-72
2022/04/27 08:10:12;;;;;;;4.20;3.33;;;16.90;74.40;;;;;;5112665;28;20205;-74
2022/04/27 08:12:40;;;;;;;5.40;2.77;;;18.10;70.30;;;;;;5107831;28;20525;-72
2022/04/27 08:15:09;;;;;;;7.33;3.17;;;18.20;68.20;;;;;;5113191;28;20443;-70
2022/04/27 08:17:36;;;;;;;4.70;3.67;;;18.50;69.60;;;;;;5113064;28;20475;-72
2022/04/27 08:22:48;;;;;;;5.50;3.67;;;21.20;64.60;;;;;;5112721;28;20662;-71
2022/04/27 08:25:17;;;;;;;4.20;2.97;;;22.70;61.10;;;;;;5112242;28;20538;-70
2022/04/27 08:27:43;;;;;;;3.90;3.53;;;23.80;58.60;;;;;;5112417;28;20443;-73
2022/04/27 08:30:11;;;;;;;5.30;2.93;;;23.30;56.30;;;;;;5112001;28;20806;-72
2022/04/27 08:32:38;;;;;;;4.97;3.00;;;23.10;56.50;;;;;;5112632;28;20523;-71
2022/04/27 08:35:05;;;;;;;5.83;3.50;;;23.60;55.90;;;;;;5112951;28;20534;-71
2022/04/27 08:37:32;;;;;;;6.97;3.90;;;24.50;55.80;;;;;;5113507;28;20561;-72
2022/04/27 08:40:01;;;;;;;4.53;3.13;;;24.50;54.50;;;;;;5111768;28;20493;-71
2022/04/27 08:42:29;;;;;;;5.80;4.30;;;23.70;55.00;;;;;;5113049;28;20444;-71
2022/04/27 08:44:56;;;;;;;5.50;4.00;;;22.00;58.40;;;;;;5112294;28;20449;-72
2022/04/27 08:47:25;;;;;;;8.60;3.77;;;20.90;60.20;;;;;;5112216;28;20436;-73
2022/04/27 08:49:52;;;;;;;6.97;4.90;;;19.80;62.80;;;;;;5115922;28;20815;-73
2022/04/27 08:52:20;;;;;;;12.47;5.90;;;18.60;65.70;;;;;;5115960;27;20450;-72
2022/04/27 08:54:49;;;;;;;5.40;3.73;;;17.60;68.20;;;;;;5116147;28;20503;-71
2022/04/27 08:57:16;;;;;;;13.40;5.25;;;17.10;71.50;;;;;;5116149;28;20474;-72
2022/04/27 08:59:46;;;;;;;9.93;4.88;;;16.60;72.00;;;;;;5115527;28;20270;-70
2022/04/27 09:02:26;;;;;;;8.65;4.28;;;15.80;73.90;;;;;;5116192;27;20197;-72
2022/04/27 09:05:13;;;;;;;7.75;4.95;;;15.60;77.90;;;;;;5116378;28;20245;-72
2022/04/27 09:07:41;;;;;;;7.25;3.85;;;15.90;82.00;;;;;;5115886;28;20206;-72
2022/04/27 09:10:10;;;;;;;8.80;6.10;;;15.90;78.00;;;;;;5115126;28;20205;-71
2022/04/27 09:12:44;;;;;;;9.48;4.40;;;16.10;78.40;;;;;;5116005;28;20198;-70
2022/04/27 09:15:14;;;;;;;7.75;4.43;;;16.20;77.50;;;;;;5115614;28;20203;-74
2022/04/27 09:23:22;;;;;;;7.95;4.50;;;16.40;74.10;;;;;;5118196;28;20272;-71
2022/04/27 09:25:51;;;;;;;7.33;4.30;;;16.70;75.90;;;;;;5117305;28;20254;-71
2022/04/27 09:28:19;;;;;;;10.00;4.17;;;17.60;72.20;;;;;;5114849;28;20507;-71
2022/04/27 09:30:49;;;;;;;4.90;3.60;;;18.70;69.20;;;;;;5114545;28;20453;-72
2022/04/27 09:33:31;;;;;;;6.47;3.60;;;20.10;66.60;;;;;;5107126;28;20909;-72
2022/04/27 09:35:59;;;;;;;5.20;3.47;;;20.90;63.20;;;;;;5115288;28;20451;-72
2022/04/27 09:38:26;;;;;;;6.10;3.77;;;20.30;62.20;;;;;;5115037;28;20510;-70
2022/04/27 09:40:57;;;;;;;4.50;3.93;;;19.50;63.40;;;;;;5113417;28;20936;-75
2022/04/27 09:43:45;;;;;;;5.03;4.30;;;19.20;65.20;;;;;;5107648;28;20964;-72
2022/04/27 09:46:20;;;;;;;3.93;3.30;;;19.80;62.70;;;;;;5109626;28;20812;-75
2022/04/27 09:48:47;;;;;;;8.60;4.03;;;20.50;63.80;;;;;;5115130;28;20458;-73
2022/04/27 09:51:14;;;;;;;9.53;5.80;;;20.80;61.20;;;;;;5117108;27;20453;-72
2022/04/27 09:53:43;;;;;;;7.77;4.47;;;20.10;60.30;;;;;;5115685;28;20469;-72
2022/04/27 09:56:12;;;;;;;10.63;6.07;;;20.00;60.80;;;;;;5115524;28;20443;-74
2022/04/27 09:58:44;;;;;;;6.60;5.70;;;20.50;60.40;;;;;;5113667;28;20509;-72
2022/04/27 10:01:14;;;;;;;7.60;4.97;;;21.00;59.90;;;;;;5105770;28;20464;-73
2022/04/27 10:03:48;;;;;;;5.70;4.73;;;21.50;59.40;;;;;;5104709;28;20443;-71
2022/04/27 10:06:16;;;;;;;5.00;3.67;;;23.00;57.10;;;;;;5114543;28;20848;-73
2022/04/27 10:08:43;;;;;;;8.13;4.73;;;23.80;56.40;;;;;;5115830;27;20816;-75
2022/04/27 10:11:12;;;;;;;7.70;5.60;;;24.10;54.40;;;;;;5114211;28;20443;-74
2022/04/27 10:13:40;;;;;;;12.37;4.97;;;23.90;53.10;;;;;;5114628;28;20440;-73
2022/04/27 10:16:07;;;;;;;11.20;5.00;;;23.60;52.50;;;;;;5109890;28;20472;-74
2022/04/27 10:18:34;;;;;;;10.20;5.90;;;21.90;53.30;;;;;;5112166;28;20546;-72
2022/04/27 10:21:04;;;;;;;7.27;4.80;;;20.10;55.40;;;;;;5114075;28;20941;-73
2022/04/27 10:23:32;;;;;;;8.00;5.30;;;18.40;58.20;;;;;;5107838;28;20937;-73
2022/04/27 10:26:10;;;;;;;7.47;5.23;;;17.70;62.00;;;;;;5105105;28;20826;-73
2022/04/27 10:28:50;;;;;;;5.37;4.10;;;17.40;62.70;;;;;;5131459;28;20462;-73
2022/04/27 10:31:50;;;;;;;12.17;5.00;;;17.20;64.30;;;;;;5132090;28;20439;-71
2022/04/27 10:34:20;;;;;;;10.30;4.80;;;17.70;62.90;;;;;;5134012;28;20432;-72
2022/04/27 10:36:49;;;;;;;9.83;5.43;;;17.50;64.30;;;;;;5120385;28;20430;-71
2022/04/27 10:39:21;;;;;;;12.23;5.83;;;17.80;63.30;;;;;;5116572;28;20980;-72
2022/04/27 10:41:57;;;;;;;6.10;5.03;;;17.80;61.70;;;;;;5113538;28;20982;-71
2022/04/27 10:45:04;;;;;;;6.27;5.30;;;17.80;62.00;;;;;;5109803;28;20454;-73
2022/04/27 10:47:36;;;;;;;7.20;4.00;;;17.30;62.30;;;;;;5113832;28;20522;-74
2022/04/27 10:50:34;;;;;;;5.87;4.87;;;17.30;62.50;;;;;;5109796;28;20447;-71
2022/04/27 10:53:20;;;;;;;6.10;5.40;;;17.20;62.80;;;;;;5110972;28;20451;-73
2022/04/27 10:55:51;;;;;;;6.73;4.63;;;17.30;64.70;;;;;;5113333;28;20207;-72
2022/04/27 10:58:24;;;;;;;6.53;5.55;;;17.40;63.90;;;;;;5112227;28;20554;-72
2022/04/27 11:01:20;;;;;;;10.03;6.20;;;17.40;63.20;;;;;;5107861;28;20300;-73
2022/04/27 11:03:58;;;;;;;7.75;4.68;;;16.70;63.10;;;;;;5113339;28;20446;-69
2022/04/27 11:06:25;;;;;;;7.10;4.80;;;17.00;64.60;;;;;;5113700;28;20235;-72
2022/04/27 11:09:13;;;;;;;6.13;5.43;;;17.50;62.70;;;;;;5113369;28;20216;-72
2022/04/27 11:11:52;;;;;;;5.97;5.35;;;17.70;61.80;;;;;;5112260;27;20454;-71
2022/04/27 11:14:21;;;;;;;8.83;4.73;;;17.30;61.10;;;;;;5116171;28;20207;-71
2022/04/27 11:16:49;;;;;;;7.47;5.53;;;17.20;63.30;;;;;;5113574;28;20939;-70
2022/04/27 11:19:17;;;;;;;7.00;5.47;;;17.40;63.30;;;;;;5098884;28;20466;-71
2022/04/27 11:21:46;;;;;;;8.10;5.18;;;17.60;62.60;;;;;;5113887;28;20434;-71
2022/04/27 11:24:15;;;;;;;5.32;4.90;;;17.30;62.00;;;;;;5113917;28;20306;-71
2022/04/27 11:26:43;;;;;;;6.47;4.50;;;17.30;62.50;;;;;;5113830;28;20218;-73
2022/04/27 11:29:12;;;;;;;10.00;5.10;;;17.40;62.20;;;;;;5112386;28;20470;-72
2022/04/27 11:31:39;;;;;;;6.33;5.10;;;17.30;61.70;;;;;;5121976;22;20205;-79
2022/04/27 11:34:24;;;;;;;7.80;4.47;;;17.30;61.50;;;;;;5116729;28;20433;-80
2022/04/27 11:36:54;;;;;;;8.27;5.37;;;17.50;61.10;;;;;;5117363;28;20434;-81
2022/04/27 11:39:26;;;;;;;10.10;5.80;;;17.60;61.40;;;;;;5113775;28;20495;-78
2022/04/27 11:42:00;;;;;;;5.03;4.63;;;17.40;60.30;;;;;;5096969;28;20465;-81
2022/04/27 11:44:28;;;;;;;7.70;5.72;;;17.40;60.40;;;;;;5096934;28;20283;-80
2022/04/27 11:46:55;;;;;;;6.83;5.30;;;17.40;61.10;;;;;;5097473;28;20276;-81
2022/04/27 11:49:25;;;;;;;7.07;5.70;;;17.30;60.60;;;;;;5096704;28;20446;-79
2022/04/27 11:51:55;;;;;;;9.48;4.60;;;17.10;61.30;;;;;;5096099;28;20424;-81
2022/04/27 11:54:28;;;;;;;10.85;5.95;;;17.10;61.60;;;;;;5096270;28;20193;-79
2022/04/27 11:57:00;;;;;;;6.60;4.80;;;17.20;61.50;;;;;;5094827;28;20195;-78
2022/04/27 11:59:43;;;;;;;10.13;5.70;;;16.90;62.50;;;;;;5091927;28;20207;-81
2022/04/27 12:02:11;;;;;;;8.55;5.88;;;16.90;62.10;;;;;;5092241;28;20261;-79
2022/04/27 12:04:38;;;;;;;9.47;5.73;;;16.70;63.70;;;;;;5090429;28;20255;-79
2022/04/27 12:07:14;;;;;;;6.50;4.83;;;17.00;63.70;;;;;;5089931;28;20451;-80
2022/04/27 12:09:55;;;;;;;8.60;5.57;;;17.10;64.10;;;;;;5094158;28;20483;-80
2022/04/27 12:12:26;;;;;;;6.40;5.03;;;17.10;64.20;;;;;;5099597;28;20469;-79
2022/04/27 12:14:54;;;;;;;13.75;5.60;;;16.70;63.80;;;;;;5109748;28;20222;-80
2022/04/27 12:17:50;;;;;;;7.50;5.75;;;16.60;65.20;;;;;;5111595;28;20199;-79
2022/04/27 12:20:40;;;;;;;8.32;5.50;;;16.20;64.20;;;;;;5116214;28;20228;-80
2022/04/27 12:23:08;;;;;;;6.40;5.07;;;16.00;65.00;;;;;;5120163;28;20190;-82
2022/04/27 12:25:40;;;;;;;8.20;5.25;;;15.90;66.10;;;;;;5120266;28;20242;-80
2022/04/27 12:28:09;;;;;;;8.10;5.85;;;15.90;66.70;;;;;;5120529;28;20172;-80
2022/04/27 12:30:51;;;;;;;13.15;6.88;;;15.90;66.10;;;;;;5125645;28;20234;-81
2022/04/27 12:33:20;;;;;;;7.75;5.47;;;15.90;66.70;;;;;;5141486;28;20197;-79
2022/04/27 12:38:37;;;;;;;6.63;6.03;;;16.30;66.20;;;;;;5141389;28;20250;-80
2022/04/27 12:41:08;;;;;;;9.38;6.45;;;16.40;65.50;;;;;;5128329;28;20190;-81
2022/04/27 12:43:35;;;;;;;10.32;6.38;;;16.20;65.90;;;;;;5120165;28;20182;-79
2022/04/27 12:46:07;;;;;;;13.43;5.60;;;16.20;66.80;;;;;;5120387;28;20207;-81
2022/04/27 12:48:35;;;;;;;6.43;5.82;;;16.30;67.80;;;;;;5120459;28;20198;-79
2022/04/27 12:51:03;;;;;;;6.57;5.82;;;16.30;66.30;;;;;;5117721;28;20234;-79
2022/04/27 12:53:31;;;;;;;12.60;6.00;;;16.30;66.70;;;;;;5105200;28;20289;-79
2022/04/27 12:56:03;;;;;;;8.98;5.43;;;16.30;66.60;;;;;;5109574;28;20236;-80
2022/04/27 12:58:32;;;;;;;8.30;6.53;;;16.00;67.30;;;;;;5107771;28;20287;-79
2022/04/27 13:00:59;;;;;;;7.40;6.25;;;16.00;67.20;;;;;;5110096;28;20213;-80
2022/04/27 13:03:26;;;;;;;12.07;6.15;;;15.90;68.30;;;;;;5109899;28;20302;-79
2022/04/27 13:05:53;;;;;;;7.30;5.45;;;15.50;67.20;;;;;;5113043;28;20697;-80
2022/04/27 13:08:20;;;;;;;6.72;6.03;;;15.50;68.30;;;;;;5111596;28;20196;-77
2022/04/27 13:13:36;;;;;;;7.75;5.38;;;15.50;68.90;;;;;;5086971;28;20186;-80
2022/04/27 13:16:03;;;;;;;11.77;6.13;;;15.70;68.50;;;;;;5092344;28;20225;-78
2022/04/27 13:18:30;;;;;;;9.23;5.85;;;15.80;68.20;;;;;;5092594;28;20215;-78
2022/04/27 13:20:57;;;;;;;8.32;4.80;;;15.70;68.20;;;;;;5094840;28;20267;-79